Weeting, United Kingdom
Current Conditions -  °F | °C
As of 4:58 PM on Sunday 23 Nov 2014 (Local Time) from EGUL Reporting Station
Light Rain Light Rain  
Wind Chill: 42°   Ceiling: Unl
Heat Index: 45°   Visibility: 6mi
Dew Point: 45°   Wind: 5mph
Humidity: 100%   Direction: 290°WNW
Pressure: 30.03"   Gusts: NA
Location:  52.46°N, 0.61°E
Report Text: EGUL 231658Z AUTO 29004KT 9999 -RA SCT022 07/07 A3003 RMK AO2 SLP173 P0004
Loading
Personal Weather Stations






























Interactive Weather Map New forecast layout! Learn more

10-Day Weather Forecast

Advertisements
Track Severe Weather on mobile